createdAt,value
2023-05-06T00:01:09.046Z,12.40
2023-05-06T00:03:36.723Z,12.39
2023-05-06T00:06:06.403Z,12.42
2023-05-06T00:08:34.053Z,12.31
2023-05-06T00:11:01.699Z,12.31
2023-05-06T00:13:29.237Z,12.24
2023-05-06T00:15:58.050Z,12.21
2023-05-06T00:18:26.219Z,12.23
2023-05-06T00:20:53.700Z,12.20
2023-05-06T00:23:21.192Z,12.17
2023-05-06T00:25:48.875Z,12.10
2023-05-06T00:28:16.406Z,12.10
2023-05-06T00:30:43.977Z,12.12
2023-05-06T00:33:11.738Z,12.08
2023-05-06T00:35:41.128Z,12.07
2023-05-06T00:38:13.611Z,11.97
2023-05-06T00:40:43.178Z,11.91
2023-05-06T00:43:11.133Z,11.89
2023-05-06T00:45:38.840Z,11.92
2023-05-06T00:48:07.844Z,12.08
2023-05-06T00:50:36.167Z,12.06
2023-05-06T00:53:04.526Z,12.13
2023-05-06T00:55:32.484Z,12.11
2023-05-06T00:58:01.252Z,12.01
2023-05-06T01:00:28.952Z,11.88
2023-05-06T01:02:57.064Z,11.80
2023-05-06T01:05:29.934Z,11.74
2023-05-06T01:08:16.945Z,11.76
2023-05-06T01:10:44.730Z,11.71
2023-05-06T01:13:19.936Z,11.76
2023-05-06T01:15:54.114Z,11.78
2023-05-06T01:18:23.266Z,11.76
2023-05-06T01:20:53.129Z,11.67
2023-05-06T01:23:21.065Z,11.67
2023-05-06T01:25:48.658Z,11.56
2023-05-06T01:28:17.755Z,11.51
2023-05-06T01:30:55.709Z,11.49
2023-05-06T01:33:51.078Z,11.45
2023-05-06T01:36:38.528Z,11.56
2023-05-06T01:39:20.506Z,11.59
2023-05-06T01:41:50.237Z,11.55
2023-05-06T01:44:21.802Z,11.48
2023-05-06T01:46:51.649Z,11.55
2023-05-06T01:49:20.418Z,11.57
2023-05-06T01:51:50.971Z,11.61
2023-05-06T01:54:18.784Z,11.56
2023-05-06T01:56:46.670Z,11.45
2023-05-06T01:59:15.703Z,11.44
2023-05-06T02:01:43.221Z,11.46
2023-05-06T02:04:10.734Z,11.45
2023-05-06T02:06:38.890Z,11.42
2023-05-06T02:09:06.620Z,11.47
2023-05-06T02:11:39.230Z,11.48
2023-05-06T02:14:08.282Z,11.39
2023-05-06T02:16:36.816Z,11.36
2023-05-06T02:19:06.067Z,11.29
2023-05-06T02:21:33.606Z,11.30
2023-05-06T02:24:01.060Z,11.32
2023-05-06T02:26:28.635Z,11.30
2023-05-06T02:28:56.185Z,11.36
2023-05-06T02:31:23.721Z,11.28
2023-05-06T02:33:51.302Z,11.32
2023-05-06T02:36:18.823Z,11.30
2023-05-06T02:38:47.586Z,11.34
2023-05-06T02:41:15.162Z,11.22
2023-05-06T02:43:42.600Z,11.22
2023-05-06T02:46:10.206Z,11.34
2023-05-06T02:48:37.758Z,11.35
2023-05-06T02:51:06.247Z,11.31
2023-05-06T02:53:33.990Z,11.31
2023-05-06T02:56:01.616Z,11.30
2023-05-06T02:58:29.303Z,11.25
2023-05-06T03:00:56.942Z,11.22
2023-05-06T03:03:24.593Z,11.23
2023-05-06T03:05:52.102Z,11.13
2023-05-06T03:08:19.769Z,11.16
2023-05-06T03:10:47.451Z,11.06
2023-05-06T03:13:18.071Z,11.03
2023-05-06T03:15:50.962Z,11.02
2023-05-06T03:18:18.774Z,11.03
2023-05-06T03:20:48.611Z,11.09
2023-05-06T03:23:16.306Z,11.13
2023-05-06T03:25:44.188Z,11.14
2023-05-06T03:28:12.181Z,11.08
2023-05-06T03:30:40.918Z,11.12
2023-05-06T03:33:08.968Z,11.03
2023-05-06T03:35:36.643Z,11.11
2023-05-06T03:38:04.361Z,11.02
2023-05-06T03:40:39.187Z,10.98
2023-05-06T03:43:07.159Z,11.02
2023-05-06T03:45:34.852Z,11.11
2023-05-06T03:48:04.354Z,11.22
2023-05-06T03:50:33.913Z,11.30
2023-05-06T03:53:01.480Z,11.40
2023-05-06T03:55:31.273Z,11.35
2023-05-06T03:57:59.037Z,11.39
2023-05-06T04:00:26.987Z,11.25
2023-05-06T04:02:55.545Z,11.39
2023-05-06T04:05:30.086Z,11.50
2023-05-06T04:07:58.466Z,11.50
2023-05-06T04:10:26.741Z,11.48
2023-05-06T04:12:58.763Z,11.29
2023-05-06T04:15:34.463Z,11.18
2023-05-06T04:18:06.321Z,11.06
2023-05-06T04:20:34.761Z,11.10
2023-05-06T04:23:02.794Z,11.00
2023-05-06T04:25:30.518Z,11.18
2023-05-06T04:27:58.141Z,11.19
2023-05-06T04:30:25.852Z,11.31
2023-05-06T04:32:53.902Z,11.22
2023-05-06T04:35:21.786Z,11.31
2023-05-06T04:37:49.360Z,11.50
2023-05-06T04:40:26.386Z,11.56
2023-05-06T04:42:54.407Z,11.59
2023-05-06T04:45:26.351Z,11.54
2023-05-06T04:47:55.084Z,11.67
2023-05-06T04:50:22.729Z,11.65
2023-05-06T04:52:50.321Z,11.82
2023-05-06T04:55:19.574Z,11.72
2023-05-06T04:57:51.659Z,11.66
2023-05-06T05:00:19.675Z,11.75
2023-05-06T05:02:47.460Z,11.84
2023-05-06T05:05:17.071Z,12.07
2023-05-06T05:07:47.121Z,12.11
2023-05-06T05:10:15.320Z,12.15
2023-05-06T05:12:43.298Z,12.10
2023-05-06T05:15:12.411Z,12.09
2023-05-06T05:17:40.614Z,12.18
2023-05-06T05:20:08.771Z,12.35
2023-05-06T05:22:37.427Z,12.48
2023-05-06T05:25:07.965Z,12.38
2023-05-06T05:27:36.744Z,12.41
2023-05-06T05:30:04.549Z,12.47
2023-05-06T05:32:35.185Z,12.54
2023-05-06T05:35:04.473Z,12.66
2023-05-06T05:37:32.874Z,12.76
2023-05-06T05:40:00.784Z,12.94
2023-05-06T05:42:28.298Z,12.98
2023-05-06T05:44:56.801Z,13.04
2023-05-06T05:47:26.427Z,13.01
2023-05-06T05:49:54.374Z,12.92
2023-05-06T05:52:22.271Z,13.01
2023-05-06T05:54:49.929Z,13.10
2023-05-06T05:57:17.514Z,13.24
2023-05-06T05:59:45.172Z,13.28
2023-05-06T06:02:12.735Z,13.33
2023-05-06T06:04:40.294Z,13.38
2023-05-06T06:07:07.915Z,13.68
2023-05-06T06:09:39.431Z,13.94
2023-05-06T06:12:07.171Z,13.96
2023-05-06T06:14:37.131Z,13.98
2023-05-06T06:17:05.790Z,13.99
2023-05-06T06:19:33.711Z,13.80
2023-05-06T06:22:01.151Z,13.81
2023-05-06T06:24:30.510Z,13.93
2023-05-06T06:26:58.028Z,13.91
2023-05-06T06:29:25.656Z,13.88
2023-05-06T06:31:56.207Z,14.00
2023-05-06T06:34:24.940Z,14.09
2023-05-06T06:36:52.405Z,14.18
2023-05-06T06:39:19.898Z,14.25
2023-05-06T06:41:47.328Z,14.33
2023-05-06T06:44:14.812Z,14.24
2023-05-06T06:46:42.948Z,14.26
2023-05-06T06:49:10.505Z,14.32
2023-05-06T06:51:37.948Z,14.53
2023-05-06T06:54:05.669Z,14.56
2023-05-06T06:56:33.163Z,14.52
2023-05-06T06:59:00.634Z,14.67
2023-05-06T07:01:28.225Z,14.64
2023-05-06T07:03:55.760Z,14.73
2023-05-06T07:06:23.324Z,14.94
2023-05-06T07:08:50.884Z,14.93
2023-05-06T07:11:18.388Z,15.04
2023-05-06T07:13:46.375Z,15.06
2023-05-06T07:16:13.870Z,15.05
2023-05-06T07:18:41.331Z,15.08
2023-05-06T07:21:09.000Z,15.04
2023-05-06T07:23:36.514Z,15.14
2023-05-06T07:26:04.072Z,15.27
2023-05-06T07:28:31.825Z,15.32
2023-05-06T07:30:59.371Z,15.32
2023-05-06T07:33:27.064Z,15.39
2023-05-06T07:35:54.915Z,15.42
2023-05-06T07:38:23.889Z,15.43
2023-05-06T07:40:51.805Z,15.37
2023-05-06T07:43:19.242Z,15.51
2023-05-06T07:45:46.674Z,15.59
2023-05-06T07:48:14.451Z,15.68
2023-05-06T07:50:41.966Z,15.93
2023-05-06T07:53:09.466Z,16.16
2023-05-06T07:55:37.783Z,16.17
2023-05-06T07:58:05.875Z,15.85
2023-05-06T08:00:33.389Z,15.94
2023-05-06T08:03:01.010Z,16.22
2023-05-06T08:05:28.579Z,16.22
2023-05-06T08:07:56.204Z,16.20
2023-05-06T08:10:24.179Z,16.34
2023-05-06T08:12:51.748Z,16.73
2023-05-06T08:15:19.310Z,16.65
2023-05-06T08:17:46.866Z,16.45
2023-05-06T08:20:14.422Z,16.52
2023-05-06T08:22:42.109Z,16.78
2023-05-06T08:25:10.343Z,17.02
2023-05-06T08:27:38.188Z,16.89
2023-05-06T08:30:06.432Z,16.76
2023-05-06T08:32:34.376Z,16.62
2023-05-06T08:35:01.936Z,16.58
2023-05-06T08:37:30.780Z,16.62
2023-05-06T08:39:59.838Z,16.55
2023-05-06T08:42:28.461Z,16.67
2023-05-06T08:44:56.623Z,16.51
2023-05-06T08:47:24.230Z,16.49
2023-05-06T08:49:51.686Z,16.68
2023-05-06T08:52:21.470Z,16.97
2023-05-06T08:54:52.182Z,16.90
2023-05-06T08:57:20.268Z,16.86
2023-05-06T08:59:48.073Z,16.83
2023-05-06T09:02:15.711Z,16.97
2023-05-06T09:04:43.265Z,17.06
2023-05-06T09:07:10.932Z,17.27
2023-05-06T09:09:38.510Z,17.12
2023-05-06T09:12:11.474Z,16.96
2023-05-06T09:14:40.369Z,16.77
2023-05-06T09:17:26.712Z,16.91
2023-05-06T09:19:57.151Z,17.04
2023-05-06T09:22:27.112Z,16.99
2023-05-06T09:24:58.167Z,17.04
2023-05-06T09:27:28.302Z,17.25
2023-05-06T09:30:02.922Z,17.31
2023-05-06T09:32:31.754Z,17.17
2023-05-06T09:35:00.196Z,16.82
2023-05-06T09:37:28.174Z,16.75
2023-05-06T09:39:57.547Z,16.98
2023-05-06T09:42:28.743Z,17.21
2023-05-06T09:45:00.540Z,17.43
2023-05-06T09:47:35.414Z,17.55
2023-05-06T09:50:04.099Z,17.33
2023-05-06T09:52:32.028Z,17.32
2023-05-06T09:55:00.624Z,17.37
2023-05-06T09:57:30.923Z,17.44
2023-05-06T10:00:00.688Z,17.62
2023-05-06T10:02:28.704Z,17.53
2023-05-06T10:04:58.664Z,17.72
2023-05-06T10:07:28.946Z,17.87
2023-05-06T10:09:58.933Z,17.65
2023-05-06T10:12:26.708Z,17.75
2023-05-06T10:14:54.323Z,17.71
2023-05-06T10:17:26.014Z,17.63
2023-05-06T10:19:59.551Z,17.67
2023-05-06T10:22:41.174Z,17.71
2023-05-06T10:25:30.117Z,17.60
2023-05-06T10:27:58.227Z,17.56
2023-05-06T10:30:28.444Z,17.81
2023-05-06T10:32:57.102Z,18.19
2023-05-06T10:35:55.466Z,18.05
2023-05-06T10:38:43.543Z,17.81
2023-05-06T10:41:12.649Z,17.82
2023-05-06T10:43:42.151Z,17.90
2023-05-06T10:46:10.806Z,17.97
2023-05-06T10:48:40.430Z,18.04
2023-05-06T10:51:16.759Z,18.15
2023-05-06T10:54:02.619Z,18.24
2023-05-06T10:56:31.366Z,18.23
2023-05-06T10:59:10.536Z,18.15
2023-05-06T11:01:43.798Z,18.02
2023-05-06T11:04:12.464Z,17.91
2023-05-06T11:06:42.193Z,18.09
2023-05-06T11:09:23.416Z,18.29
2023-05-06T11:12:00.990Z,18.35
2023-05-06T11:14:29.913Z,18.08
2023-05-06T11:16:59.855Z,18.01
2023-05-06T11:19:33.061Z,18.10
2023-05-06T11:22:02.476Z,18.06
2023-05-06T11:24:44.064Z,18.26
2023-05-06T11:27:13.720Z,18.10
2023-05-06T11:29:43.543Z,18.10
2023-05-06T11:32:26.812Z,18.03
2023-05-06T11:35:00.114Z,18.03
2023-05-06T11:37:29.137Z,17.92
2023-05-06T11:39:56.629Z,17.86
2023-05-06T11:42:26.172Z,17.98
2023-05-06T11:44:55.876Z,17.95
2023-05-06T11:47:23.936Z,17.81
2023-05-06T11:49:54.353Z,17.82
2023-05-06T11:52:22.127Z,17.87
2023-05-06T11:54:52.807Z,18.05
2023-05-06T11:57:20.653Z,18.44
2023-05-06T11:59:54.337Z,18.51
2023-05-06T12:02:21.993Z,18.77
2023-05-06T12:04:53.260Z,18.78
2023-05-06T12:07:20.992Z,18.47
2023-05-06T12:09:50.395Z,17.86
2023-05-06T12:12:22.493Z,17.56
2023-05-06T12:14:53.196Z,17.71
2023-05-06T12:17:20.950Z,17.79
2023-05-06T12:19:48.510Z,17.82
2023-05-06T12:22:20.813Z,17.92
2023-05-06T12:24:49.279Z,17.99
2023-05-06T12:27:37.310Z,18.24
2023-05-06T12:30:08.930Z,18.38
2023-05-06T12:32:57.396Z,18.03
2023-05-06T12:35:29.642Z,17.95
2023-05-06T12:38:07.256Z,17.97
2023-05-06T12:40:35.189Z,18.18
2023-05-06T12:43:02.772Z,18.52
2023-05-06T12:45:30.628Z,18.39
2023-05-06T12:48:02.428Z,18.69
2023-05-06T12:50:41.528Z,18.66
2023-05-06T12:53:11.105Z,18.83
2023-05-06T12:55:39.862Z,18.88
2023-05-06T12:58:20.706Z,19.11
2023-05-06T13:00:48.376Z,19.23
2023-05-06T13:03:15.955Z,18.44
2023-05-06T13:05:43.530Z,18.10
2023-05-06T13:08:11.541Z,18.12
2023-05-06T13:10:39.465Z,18.20
2023-05-06T13:13:07.426Z,18.47
2023-05-06T13:15:35.716Z,18.60
2023-05-06T13:18:03.482Z,18.79
2023-05-06T13:20:32.476Z,18.69
2023-05-06T13:23:00.652Z,18.56
2023-05-06T13:25:28.035Z,18.48
2023-05-06T13:27:55.862Z,18.72
2023-05-06T13:30:23.372Z,18.88
2023-05-06T13:32:50.959Z,18.75
2023-05-06T13:35:18.544Z,18.72
2023-05-06T13:37:46.026Z,18.72
2023-05-06T13:40:14.680Z,18.18
2023-05-06T13:42:42.419Z,17.93
2023-05-06T13:45:10.216Z,17.80
2023-05-06T13:47:38.373Z,17.97
2023-05-06T13:50:06.633Z,17.93
2023-05-06T13:52:34.376Z,18.11
2023-05-06T13:55:01.931Z,18.28
2023-05-06T13:57:29.715Z,18.52
2023-05-06T13:59:57.219Z,18.51
2023-05-06T14:02:24.757Z,18.65
2023-05-06T14:04:52.693Z,18.72
2023-05-06T14:07:20.170Z,18.64
2023-05-06T14:09:47.622Z,18.70
2023-05-06T14:12:16.255Z,18.69
2023-05-06T14:14:44.073Z,18.73
2023-05-06T14:17:11.520Z,18.99
2023-05-06T14:19:39.199Z,18.67
2023-05-06T14:22:06.774Z,18.58
2023-05-06T14:24:34.698Z,18.49
2023-05-06T14:27:02.337Z,18.45
2023-05-06T14:29:30.021Z,18.56
2023-05-06T14:31:57.567Z,18.69
2023-05-06T14:34:26.734Z,18.54
2023-05-06T14:36:54.175Z,18.63
2023-05-06T14:39:21.633Z,18.64
2023-05-06T14:41:49.147Z,18.56
2023-05-06T14:44:16.685Z,18.51
2023-05-06T14:46:44.210Z,18.45
2023-05-06T14:49:11.619Z,18.58
2023-05-06T14:51:39.115Z,18.65
2023-05-06T14:54:06.638Z,18.71
2023-05-06T14:56:34.264Z,18.76
2023-05-06T14:59:03.222Z,18.83
2023-05-06T15:01:33.666Z,18.49
2023-05-06T15:04:01.218Z,18.80
2023-05-06T15:06:28.982Z,19.06
2023-05-06T15:08:56.778Z,19.29
2023-05-06T15:11:24.270Z,19.45
2023-05-06T15:13:51.805Z,19.91
2023-05-06T15:16:19.337Z,20.16
2023-05-06T15:18:46.910Z,20.61
2023-05-06T15:21:14.421Z,20.32
2023-05-06T15:23:43.040Z,20.01
2023-05-06T15:26:10.528Z,20.11
2023-05-06T15:28:39.469Z,19.64
2023-05-06T15:31:07.132Z,19.45
2023-05-06T15:33:34.700Z,19.98
2023-05-06T15:36:02.148Z,20.19
2023-05-06T15:38:52.692Z,19.16
2023-05-06T15:41:20.877Z,18.47
2023-05-06T15:43:48.342Z,18.07
2023-05-06T15:46:15.996Z,17.90
2023-05-06T15:48:43.553Z,17.71
2023-05-06T15:51:11.072Z,17.75
2023-05-06T15:53:42.634Z,17.52
2023-05-06T15:56:18.150Z,17.27
2023-05-06T15:58:46.484Z,17.04
2023-05-06T16:01:14.830Z,16.83
2023-05-06T16:03:42.933Z,16.80
2023-05-06T16:06:11.191Z,16.74
2023-05-06T16:08:39.028Z,16.65
2023-05-06T16:11:07.216Z,16.48
2023-05-06T16:13:34.906Z,16.41
2023-05-06T16:16:02.521Z,16.25
2023-05-06T16:18:30.855Z,16.07
2023-05-06T16:20:58.254Z,16.04
2023-05-06T16:23:26.337Z,15.98
2023-05-06T16:25:54.833Z,15.90
2023-05-06T16:28:24.360Z,15.74
2023-05-06T16:30:51.887Z,15.65
2023-05-06T16:33:19.318Z,15.66
2023-05-06T16:35:46.836Z,15.52
2023-05-06T16:38:14.477Z,15.46
2023-05-06T16:40:42.756Z,15.34
2023-05-06T16:43:10.499Z,15.20
2023-05-06T16:45:39.662Z,15.18
2023-05-06T16:48:07.326Z,15.04
2023-05-06T16:50:35.135Z,15.05
2023-05-06T16:53:02.692Z,15.07
2023-05-06T16:55:30.262Z,15.00
2023-05-06T16:58:00.594Z,14.93
2023-05-06T17:00:29.169Z,14.86
2023-05-06T17:02:56.713Z,14.80
2023-05-06T17:05:24.423Z,14.77
2023-05-06T17:07:52.590Z,14.68
2023-05-06T17:10:20.877Z,14.56
2023-05-06T17:12:48.407Z,14.53
2023-05-06T17:15:16.234Z,14.41
2023-05-06T17:17:43.747Z,14.37
2023-05-06T17:20:11.932Z,14.44
2023-05-06T17:22:39.803Z,14.35
2023-05-06T17:25:07.770Z,14.16
2023-05-06T17:27:35.448Z,14.03
2023-05-06T17:30:03.018Z,14.00
2023-05-06T17:32:31.677Z,14.01
2023-05-06T17:34:59.291Z,13.98
2023-05-06T17:37:26.939Z,13.99
2023-05-06T17:39:54.734Z,13.90
2023-05-06T17:42:22.324Z,13.80
2023-05-06T17:44:49.783Z,13.78
2023-05-06T17:47:23.188Z,13.75
2023-05-06T17:49:53.190Z,13.65
2023-05-06T17:52:20.929Z,13.57
2023-05-06T17:55:01.504Z,13.53
2023-05-06T17:57:38.987Z,13.49
2023-05-06T18:00:07.605Z,13.51
2023-05-06T18:02:39.805Z,13.42
2023-05-06T18:05:08.383Z,13.39
2023-05-06T18:07:36.278Z,13.37
2023-05-06T18:10:04.071Z,13.26
2023-05-06T18:12:32.322Z,13.22
2023-05-06T18:15:00.744Z,13.12
2023-05-06T18:17:28.326Z,13.00
2023-05-06T18:19:55.933Z,13.03
2023-05-06T18:22:23.419Z,12.97
2023-05-06T18:24:55.229Z,12.88
2023-05-06T18:27:23.350Z,12.79
2023-05-06T18:29:51.560Z,12.74
2023-05-06T18:32:19.259Z,12.76
2023-05-06T18:34:46.682Z,12.69
2023-05-06T18:37:14.278Z,12.59
2023-05-06T18:39:42.744Z,12.56
2023-05-06T18:42:10.236Z,12.53
2023-05-06T18:44:38.143Z,12.48
2023-05-06T18:47:05.839Z,12.48
2023-05-06T18:49:33.412Z,12.44
2023-05-06T18:52:02.350Z,12.44
2023-05-06T18:54:30.023Z,12.36
2023-05-06T18:56:58.627Z,12.34
2023-05-06T18:59:26.424Z,12.30
2023-05-06T19:01:53.931Z,12.30
2023-05-06T19:04:21.441Z,12.24
2023-05-06T19:06:48.980Z,12.20
2023-05-06T19:09:16.583Z,12.11
2023-05-06T19:11:44.407Z,12.07
2023-05-06T19:14:11.968Z,12.04
2023-05-06T19:16:39.598Z,12.05
2023-05-06T19:19:07.462Z,12.02
2023-05-06T19:21:35.908Z,11.93
2023-05-06T19:24:03.539Z,11.87
2023-05-06T19:26:31.809Z,11.78
2023-05-06T19:28:59.413Z,11.81
2023-05-06T19:31:26.989Z,11.85
2023-05-06T19:33:54.665Z,11.86
2023-05-06T19:36:22.472Z,11.80
2023-05-06T19:38:49.935Z,11.74
2023-05-06T19:41:17.420Z,11.65
2023-05-06T19:43:45.122Z,11.60
2023-05-06T19:46:12.997Z,11.58
2023-05-06T19:48:40.584Z,11.54
2023-05-06T19:51:08.432Z,11.45
2023-05-06T19:53:36.728Z,11.42
2023-05-06T19:56:14.201Z,11.35
2023-05-06T19:58:42.035Z,11.29
2023-05-06T20:01:09.546Z,11.29
2023-05-06T20:03:37.665Z,11.29
2023-05-06T20:06:05.479Z,11.23
2023-05-06T20:08:33.292Z,11.07
2023-05-06T20:11:01.100Z,11.10
2023-05-06T20:13:29.007Z,11.07
2023-05-06T20:15:57.537Z,11.07
2023-05-06T20:18:25.487Z,11.05
2023-05-06T20:20:53.059Z,11.03
2023-05-06T20:23:20.490Z,11.05
2023-05-06T20:25:48.197Z,10.87
2023-05-06T20:28:18.347Z,10.81
2023-05-06T20:30:45.961Z,10.75
2023-05-06T20:33:13.883Z,10.63
2023-05-06T20:35:41.482Z,10.60
2023-05-06T20:38:09.419Z,10.56
2023-05-06T20:40:37.078Z,10.52
2023-05-06T20:43:04.832Z,10.56
2023-05-06T20:45:33.118Z,10.52
2023-05-06T20:48:00.747Z,10.55
2023-05-06T20:50:30.010Z,10.50
2023-05-06T20:52:57.564Z,10.42
2023-05-06T20:55:25.858Z,10.43
2023-05-06T20:57:53.506Z,10.45
2023-05-06T21:00:21.794Z,10.34
2023-05-06T21:02:49.576Z,10.22
2023-05-06T21:05:17.223Z,10.22
2023-05-06T21:07:45.801Z,10.20
2023-05-06T21:10:14.434Z,10.16
2023-05-06T21:12:47.784Z,10.22
2023-05-06T21:15:15.607Z,10.07
2023-05-06T21:17:43.313Z,10.13
2023-05-06T21:20:11.796Z,10.05
2023-05-06T21:22:40.095Z,9.91
2023-05-06T21:25:08.940Z,9.85
2023-05-06T21:27:36.698Z,9.89
2023-05-06T21:30:04.589Z,9.91
2023-05-06T21:32:33.417Z,9.91
2023-05-06T21:35:02.246Z,9.80
2023-05-06T21:37:30.157Z,9.82
2023-05-06T21:39:57.746Z,9.85
2023-05-06T21:42:25.631Z,9.80
2023-05-06T21:44:53.122Z,9.71
2023-05-06T21:47:20.569Z,9.74
2023-05-06T21:49:48.110Z,9.64
2023-05-06T21:52:15.595Z,9.62
2023-05-06T21:54:45.984Z,9.63
2023-05-06T21:57:13.522Z,9.62
2023-05-06T21:59:41.065Z,9.47
2023-05-06T22:02:08.558Z,9.41
2023-05-06T22:04:36.110Z,9.39
2023-05-06T22:07:03.729Z,9.35
2023-05-06T22:09:32.104Z,9.35
2023-05-06T22:11:59.783Z,9.43
2023-05-06T22:14:37.324Z,9.43
2023-05-06T22:17:10.492Z,9.37
2023-05-06T22:19:38.590Z,9.41
2023-05-06T22:22:06.630Z,9.26
2023-05-06T22:24:34.468Z,9.26
2023-05-06T22:27:02.061Z,9.30
2023-05-06T22:29:29.585Z,9.21
2023-05-06T22:31:57.156Z,9.14
2023-05-06T22:34:24.745Z,9.08
2023-05-06T22:36:52.311Z,9.06
2023-05-06T22:39:19.802Z,9.04
2023-05-06T22:41:49.447Z,8.99
2023-05-06T22:44:17.501Z,9.08
2023-05-06T22:46:45.061Z,9.09
2023-05-06T22:49:12.520Z,9.07
2023-05-06T22:51:40.225Z,9.14
2023-05-06T22:54:07.875Z,9.00
2023-05-06T22:56:35.474Z,8.92
2023-05-06T22:59:03.278Z,8.96
2023-05-06T23:01:32.311Z,8.93
2023-05-06T23:04:00.213Z,8.94
2023-05-06T23:06:28.050Z,8.89
2023-05-06T23:08:55.770Z,8.87
2023-05-06T23:11:23.706Z,8.84
2023-05-06T23:13:51.214Z,8.82
2023-05-06T23:16:18.837Z,8.72
2023-05-06T23:18:46.342Z,8.73
2023-05-06T23:21:13.884Z,8.74
2023-05-06T23:23:41.426Z,8.73
2023-05-06T23:26:08.906Z,8.66
2023-05-06T23:28:36.763Z,8.70
2023-05-06T23:31:04.223Z,8.71
2023-05-06T23:33:31.795Z,8.57
2023-05-06T23:36:00.823Z,8.57
2023-05-06T23:38:28.812Z,8.56
2023-05-06T23:40:56.490Z,8.68
2023-05-06T23:43:23.987Z,8.63
2023-05-06T23:45:51.739Z,8.52
2023-05-06T23:48:19.235Z,8.46
2023-05-06T23:50:46.733Z,8.41
2023-05-06T23:53:14.230Z,8.40
2023-05-06T23:55:42.952Z,8.30
2023-05-06T23:58:10.500Z,8.34
